Hawthorne, Wisconsin
Current Conditions -  °F | °C
As of 10:15 PM on Tuesday 25 Nov 2014 (Local Time) from KOLG Reporting Station
Overcast Overcast  
Wind Chill: 18°   Ceiling: 2100
Heat Index: 18°   Visibility: 10mi
Dew Point: 14°   Wind: 0mph
Humidity: 86%   Direction: NA
Pressure: 30.06"   Gusts: NA
Location:  46.5°N, 91.86°W
Report Text: KOLG 260415Z AUTO 00000KT 10SM OVC021 M08/M10 A3006 RMK AO1
Loading
Personal Weather Stations






























Interactive Weather Map New forecast layout! Learn more

10-Day Weather Forecast

Advertisements
Track Severe Weather on mobile